Birkenshaw, United Kingdom
Current Conditions -  °F | °C
As of 11:50 AM on Sunday 21 Dec 2014 (Local Time) from EGNM Reporting Station
Light Rain Light Rain  
Wind Chill: 39°   Ceiling: 800
Heat Index: 45°   Visibility: 4mi
Dew Point: 45°   Wind: 10mph
Humidity: 100%   Direction: 230°SW
Pressure: 30.06"   Gusts: NA
Location:  53.75°N, 1.66°W
Report Text: EGNM 211150Z 23009KT 190V280 7000 -RA SCT005 BKN008 07/07 Q1018
Loading
Personal Weather Stations






























Interactive Weather Map New forecast layout! Learn more

10-Day Weather Forecast

Advertisements
Track Severe Weather on mobile